Time;durP1;ratioP1;P1;durP2;ratioP2;P2;SDS_P1;SDS_P2;PMS_P1;PMS_P2;Temp;Humidity;BMP_temperature;BMP_pressure;BME280_temperature;BME280_humidity;BME280_pressure;Samples;Min_cycle;Max_cycle;Signal;HPM_P1;HPM_P2
2023/02/12 00:00:14;;;;;;;61.00;46.00;;;;;;;;;;109761;1251;58245;-75
2023/02/12 00:03:01;;;;;;;64.20;44.30;;;;;;;;;;109789;1250;58240;-74
2023/02/12 00:05:28;;;;;;;63.20;45.30;;;;;;;;;;109766;1253;60993;-75
2023/02/12 00:07:54;;;;;;;68.90;47.60;;;;;;;;;;109594;1251;58105;-74
2023/02/12 00:10:21;;;;;;;69.60;49.10;;;;;;;;;;109764;1250;60948;-74
2023/02/12 00:12:48;;;;;;;71.00;51.60;;;;;;;;;;109783;1251;58198;-74
2023/02/12 00:15:14;;;;;;;71.90;50.80;;;;;;;;;;109819;1250;58083;-74
2023/02/12 00:17:41;;;;;;;61.80;44.70;;;;;;;;;;109769;1250;62298;-74
2023/02/12 00:20:08;;;;;;;53.10;37.90;;;;;;;;;;109623;1250;58429;-74
2023/02/12 00:22:34;;;;;;;51.70;37.00;;;;;;;;;;109773;1249;60887;-75
2023/02/12 00:25:01;;;;;;;46.50;35.10;;;;;;;;;;109763;1250;58153;-74
2023/02/12 00:27:27;;;;;;;47.70;34.30;;;;;;;;;;109624;1251;58228;-74
2023/02/12 00:29:54;;;;;;;45.50;32.60;;;;;;;;;;109842;1250;62375;-75
2023/02/12 00:32:21;;;;;;;43.50;32.70;;;;;;;;;;109792;1249;58209;-74
2023/02/12 00:34:47;;;;;;;40.80;30.70;;;;;;;;;;109773;1249;60943;-75
2023/02/12 00:37:14;;;;;;;44.40;30.90;;;;;;;;;;109447;1251;58310;-75
2023/02/12 00:39:41;;;;;;;35.40;26.80;;;;;;;;;;109792;1249;58270;-75
2023/02/12 00:42:07;;;;;;;35.60;28.20;;;;;;;;;;109610;1251;61390;-74
2023/02/12 00:44:34;;;;;;;36.80;29.10;;;;;;;;;;109730;1251;58136;-75
2023/02/12 00:47:01;;;;;;;33.90;27.30;;;;;;;;;;109752;1251;60906;-75
2023/02/12 00:49:32;;;;;;;36.70;25.70;;;;;;;;;;109763;1250;58244;-75
2023/02/12 00:52:00;;;;;;;34.90;26.40;;;;;;;;;;109554;1250;58249;-74
2023/02/12 00:54:27;;;;;;;34.60;26.10;;;;;;;;;;109518;1249;62231;-72
2023/02/12 00:56:54;;;;;;;33.00;25.00;;;;;;;;;;109786;1250;58426;-74
2023/02/12 00:59:24;;;;;;;30.80;24.00;;;;;;;;;;109725;1249;60990;-74
2023/02/12 01:01:52;;;;;;;28.80;23.70;;;;;;;;;;109797;1250;58603;-74
2023/02/12 01:04:19;;;;;;;30.40;22.80;;;;;;;;;;109787;1249;58155;-74
2023/02/12 01:06:45;;;;;;;29.50;23.10;;;;;;;;;;109789;1249;62197;-74
2023/02/12 01:09:12;;;;;;;30.60;23.70;;;;;;;;;;109799;1251;58057;-74
2023/02/12 01:11:40;;;;;;;27.30;22.10;;;;;;;;;;109754;1250;59385;-75
2023/02/12 01:14:07;;;;;;;28.70;24.00;;;;;;;;;;109748;1250;58126;-74
2023/02/12 01:16:35;;;;;;;29.20;22.50;;;;;;;;;;109723;1250;58202;-75
2023/02/12 01:19:03;;;;;;;30.40;23.70;;;;;;;;;;109732;1251;62244;-75
2023/02/12 01:21:31;;;;;;;31.70;23.60;;;;;;;;;;109784;1249;58434;-75
2023/02/12 01:23:57;;;;;;;29.20;23.60;;;;;;;;;;109730;1250;61088;-75
2023/02/12 01:26:24;;;;;;;30.10;22.20;;;;;;;;;;109756;1250;58247;-75
2023/02/12 01:28:52;;;;;;;31.00;23.40;;;;;;;;;;109787;1250;58913;-74
2023/02/12 01:31:20;;;;;;;30.70;24.20;;;;;;;;;;109586;1251;62394;-77
2023/02/12 01:33:47;;;;;;;30.70;23.50;;;;;;;;;;109751;1251;58176;-75
2023/02/12 01:36:13;;;;;;;27.10;22.40;;;;;;;;;;109752;1250;58474;-74
2023/02/12 01:38:40;;;;;;;30.50;23.80;;;;;;;;;;109787;1250;58191;-75
2023/02/12 01:41:17;;;;;;;28.30;22.40;;;;;;;;;;109795;1250;58238;-74
2023/02/12 01:43:45;;;;;;;26.30;21.70;;;;;;;;;;109772;1249;60641;-74
2023/02/12 01:46:12;;;;;;;26.20;20.40;;;;;;;;;;109795;1251;59258;-74
2023/02/12 01:48:42;;;;;;;26.50;21.00;;;;;;;;;;109787;1250;59872;-75
2023/02/12 01:51:11;;;;;;;27.70;22.50;;;;;;;;;;109744;1250;58225;-75
2023/02/12 01:53:40;;;;;;;29.00;22.90;;;;;;;;;;109536;1250;58216;-74
2023/02/12 01:56:08;;;;;;;29.80;23.50;;;;;;;;;;109779;1250;61093;-74
2023/02/12 01:58:37;;;;;;;29.80;24.20;;;;;;;;;;109791;1250;58249;-74
2023/02/12 02:01:05;;;;;;;29.70;24.40;;;;;;;;;;109749;1250;60766;-74
2023/02/12 02:03:34;;;;;;;27.80;22.20;;;;;;;;;;109543;1249;58170;-74
2023/02/12 02:06:11;;;;;;;32.70;24.70;;;;;;;;;;109745;1250;58224;-74
2023/02/12 02:08:39;;;;;;;28.60;23.90;;;;;;;;;;109773;1251;62283;-74
2023/02/12 02:14:31;;;;;;;30.10;24.20;;;;;;;;;;109778;1250;58356;-74
2023/02/12 02:16:41;;;;;;;34.10;26.80;;;;;;;;;;109726;1250;58183;-74
2023/02/12 02:19:10;;;;;;;31.90;25.80;;;;;;;;;;109768;1249;58082;-74
2023/02/12 02:21:46;;;;;;;33.30;25.60;;;;;;;;;;109780;1249;61059;-74
2023/02/12 02:24:13;;;;;;;34.90;26.20;;;;;;;;;;109753;1251;58231;-75
2023/02/12 02:26:39;;;;;;;35.40;27.70;;;;;;;;;;109788;1249;58618;-75
2023/02/12 02:29:32;;;;;;;36.30;27.50;;;;;;;;;;109769;1250;58228;-75
2023/02/12 02:32:05;;;;;;;38.90;28.00;;;;;;;;;;109713;1250;58318;-75
2023/02/12 02:34:39;;;;;;;37.70;28.60;;;;;;;;;;109626;1251;62330;-74
2023/02/12 02:37:25;;;;;;;36.00;28.60;;;;;;;;;;109480;1250;58214;-74
2023/02/12 02:39:58;;;;;;;36.50;28.50;;;;;;;;;;109779;1249;59901;-74
2023/02/12 02:42:34;;;;;;;38.10;29.30;;;;;;;;;;109726;1249;58185;-75
2023/02/12 02:45:00;;;;;;;37.10;27.50;;;;;;;;;;109657;1250;58235;-74
2023/02/12 02:47:34;;;;;;;39.60;29.80;;;;;;;;;;109757;1250;61240;-74
2023/02/12 02:50:03;;;;;;;37.30;28.00;;;;;;;;;;109755;1250;58158;-73
2023/02/12 02:52:39;;;;;;;39.00;29.30;;;;;;;;;;109742;1251;59820;-74
2023/02/12 02:55:07;;;;;;;36.10;26.30;;;;;;;;;;109738;1249;58207;-75
2023/02/12 02:57:42;;;;;;;38.20;30.20;;;;;;;;;;109737;1250;58123;-74
2023/02/12 03:00:30;;;;;;;36.30;27.40;;;;;;;;;;109746;1251;62452;-74
2023/02/12 03:03:02;;;;;;;41.40;29.60;;;;;;;;;;109743;1250;58072;-73
2023/02/12 03:05:30;;;;;;;40.60;30.20;;;;;;;;;;109747;1250;59750;-74
2023/02/12 03:08:22;;;;;;;35.80;26.50;;;;;;;;;;109549;1251;58604;-74
2023/02/12 03:10:55;;;;;;;40.60;30.10;;;;;;;;;;109465;1251;58522;-75
2023/02/12 03:13:24;;;;;;;41.90;30.10;;;;;;;;;;109793;1251;62217;-75
2023/02/12 03:15:56;;;;;;;37.70;29.10;;;;;;;;;;109765;1249;58168;-73
2023/02/12 03:18:25;;;;;;;43.10;30.70;;;;;;;;;;109757;1250;61062;-73
2023/02/12 03:20:59;;;;;;;42.00;29.70;;;;;;;;;;109751;1249;58671;-75
2023/02/12 03:23:28;;;;;;;42.20;31.40;;;;;;;;;;109805;1251;58054;-74
2023/02/12 03:25:55;;;;;;;46.40;33.20;;;;;;;;;;109717;1251;61115;-74
2023/02/12 03:28:26;;;;;;;46.40;32.00;;;;;;;;;;109768;1249;58533;-74
2023/02/12 03:31:08;;;;;;;46.30;31.50;;;;;;;;;;109790;1250;59738;-75
2023/02/12 03:33:54;;;;;;;46.70;32.30;;;;;;;;;;109727;1251;58133;-75
2023/02/12 03:36:53;;;;;;;43.00;30.30;;;;;;;;;;109776;1249;58221;-75
2023/02/12 03:39:38;;;;;;;45.60;31.70;;;;;;;;;;109164;1256;62351;-74
2023/02/12 03:42:07;;;;;;;46.60;31.90;;;;;;;;;;109200;1256;58046;-74
2023/02/12 03:44:40;;;;;;;43.00;29.00;;;;;;;;;;109145;1257;60935;-74
2023/02/12 03:47:15;;;;;;;46.90;33.20;;;;;;;;;;109118;1256;58241;-74
2023/02/12 03:49:54;;;;;;;50.90;33.80;;;;;;;;;;109146;1256;58530;-74
2023/02/12 03:55:13;;;;;;;44.50;31.60;;;;;;;;;;109016;1259;58240;-74
2023/02/12 03:57:41;;;;;;;44.10;31.40;;;;;;;;;;108999;1256;59608;-74
2023/02/12 04:00:10;;;;;;;47.60;35.10;;;;;;;;;;109012;1256;58221;-74
2023/02/12 04:02:37;;;;;;;47.10;35.20;;;;;;;;;;109140;1256;58216;-74
2023/02/12 04:05:05;;;;;;;48.90;35.30;;;;;;;;;;109176;1256;61211;-74
2023/02/12 04:07:32;;;;;;;53.10;36.90;;;;;;;;;;109175;1256;58218;-74
2023/02/12 04:09:59;;;;;;;47.10;35.20;;;;;;;;;;108991;1257;59135;-74
2023/02/12 04:12:28;;;;;;;53.80;37.20;;;;;;;;;;109111;1257;58230;-74
2023/02/12 04:15:10;;;;;;;48.90;35.50;;;;;;;;;;109372;1251;58234;-74
2023/02/12 04:17:55;;;;;;;51.40;36.10;;;;;;;;;;109721;1250;62236;-75
2023/02/12 04:20:40;;;;;;;48.50;35.90;;;;;;;;;;109759;1251;58514;-74
2023/02/12 04:23:25;;;;;;;53.80;37.70;;;;;;;;;;109783;1251;59804;-74
2023/02/12 04:26:11;;;;;;;52.20;38.00;;;;;;;;;;109518;1250;58179;-74
2023/02/12 04:28:46;;;;;;;51.80;36.70;;;;;;;;;;109729;1251;58175;-75
2023/02/12 04:31:16;;;;;;;52.30;37.70;;;;;;;;;;109753;1251;61217;-75
2023/02/12 04:33:47;;;;;;;50.30;36.70;;;;;;;;;;109802;1250;58439;-75
2023/02/12 04:36:22;;;;;;;57.20;40.30;;;;;;;;;;109748;1250;60066;-74
2023/02/12 04:38:50;;;;;;;55.50;38.30;;;;;;;;;;109746;1249;58480;-74
2023/02/12 04:41:17;;;;;;;53.90;38.50;;;;;;;;;;109770;1251;58182;-74
2023/02/12 04:43:44;;;;;;;52.90;37.30;;;;;;;;;;109734;1249;62309;-74
2023/02/12 04:46:10;;;;;;;49.60;35.20;;;;;;;;;;109759;1251;58408;-75
2023/02/12 04:48:42;;;;;;;55.40;38.30;;;;;;;;;;109779;1249;59848;-75
2023/02/12 04:51:09;;;;;;;49.30;35.00;;;;;;;;;;109720;1251;58250;-74
2023/02/12 04:53:37;;;;;;;55.40;37.70;;;;;;;;;;109761;1251;58221;-75
2023/02/12 04:56:03;;;;;;;49.80;37.70;;;;;;;;;;109706;1253;62230;-74
2023/02/12 04:58:30;;;;;;;54.20;36.10;;;;;;;;;;109447;1251;58210;-75
2023/02/12 05:00:57;;;;;;;54.10;36.70;;;;;;;;;;109730;1250;60535;-75
2023/02/12 05:03:24;;;;;;;55.60;36.90;;;;;;;;;;109717;1250;58223;-74
2023/02/12 05:05:50;;;;;;;53.20;36.30;;;;;;;;;;109755;1250;58343;-74
2023/02/12 05:08:17;;;;;;;55.50;38.50;;;;;;;;;;109726;1250;62195;-74
2023/02/12 05:10:43;;;;;;;54.60;37.50;;;;;;;;;;108973;1250;1002585;-74
2023/02/12 05:13:10;;;;;;;53.80;37.50;;;;;;;;;;109785;1253;59853;-74
2023/02/12 05:15:39;;;;;;;52.60;37.70;;;;;;;;;;109706;1250;58289;-74
2023/02/12 05:18:06;;;;;;;50.30;37.60;;;;;;;;;;109600;1249;58273;-73
2023/02/12 05:20:32;;;;;;;51.40;35.50;;;;;;;;;;109745;1249;62393;-73
2023/02/12 05:22:59;;;;;;;47.90;35.10;;;;;;;;;;109729;1251;58182;-75
2023/02/12 05:25:25;;;;;;;56.00;38.20;;;;;;;;;;109755;1250;60977;-74
2023/02/12 05:27:55;;;;;;;52.90;36.70;;;;;;;;;;109710;1253;58436;-74
2023/02/12 05:30:22;;;;;;;50.80;36.50;;;;;;;;;;109769;1250;58227;-74
2023/02/12 05:32:48;;;;;;;50.60;38.00;;;;;;;;;;109743;1249;61314;-73
2023/02/12 05:35:15;;;;;;;53.60;39.20;;;;;;;;;;109721;1251;58157;-74
2023/02/12 05:37:41;;;;;;;60.10;41.80;;;;;;;;;;109803;1249;59738;-74
2023/02/12 05:40:08;;;;;;;55.60;40.00;;;;;;;;;;109743;1249;58166;-74
2023/02/12 05:42:35;;;;;;;57.20;41.40;;;;;;;;;;109736;1251;58267;-73
2023/02/12 05:45:01;;;;;;;57.40;42.50;;;;;;;;;;109751;1249;62379;-74
2023/02/12 05:47:28;;;;;;;58.10;40.80;;;;;;;;;;109763;1251;58190;-74
2023/02/12 05:49:54;;;;;;;58.50;41.80;;;;;;;;;;109754;1250;60497;-74
2023/02/12 05:52:21;;;;;;;57.10;39.30;;;;;;;;;;109722;1251;58470;-74
2023/02/12 05:54:49;;;;;;;59.00;40.40;;;;;;;;;;109754;1250;58057;-74
2023/02/12 05:57:15;;;;;;;54.00;39.80;;;;;;;;;;109749;1251;61296;-74
2023/02/12 05:59:42;;;;;;;61.40;42.30;;;;;;;;;;109766;1251;58609;-74
2023/02/12 06:02:08;;;;;;;55.10;41.50;;;;;;;;;;109715;1251;61011;-74
2023/02/12 06:04:35;;;;;;;54.40;39.10;;;;;;;;;;109702;1251;58217;-74
2023/02/12 06:07:01;;;;;;;58.70;41.00;;;;;;;;;;109690;1253;58245;-75
2023/02/12 06:09:28;;;;;;;53.20;39.80;;;;;;;;;;109750;1251;62119;-75
2023/02/12 06:11:54;;;;;;;53.80;40.60;;;;;;;;;;109752;1249;58249;-75
2023/02/12 06:14:21;;;;;;;54.30;39.60;;;;;;;;;;109714;1249;61077;-75
2023/02/12 06:16:49;;;;;;;55.00;39.50;;;;;;;;;;109726;1249;58389;-74
2023/02/12 06:19:16;;;;;;;54.20;39.70;;;;;;;;;;109696;1251;58043;-74
2023/02/12 06:21:42;;;;;;;54.00;39.80;;;;;;;;;;109785;1249;61548;-75
2023/02/12 06:24:13;;;;;;;54.30;39.50;;;;;;;;;;109748;1251;58203;-74
2023/02/12 06:26:39;;;;;;;56.20;39.40;;;;;;;;;;109733;1251;60996;-74
2023/02/12 06:29:06;;;;;;;56.10;39.40;;;;;;;;;;109704;1250;58219;-74
2023/02/12 06:31:34;;;;;;;48.10;35.90;;;;;;;;;;109620;1250;58661;-74
2023/02/12 06:34:05;;;;;;;52.90;38.60;;;;;;;;;;109738;1250;60952;-75
2023/02/12 06:36:32;;;;;;;55.80;39.20;;;;;;;;;;109754;1249;58256;-74
2023/02/12 06:39:02;;;;;;;55.40;40.10;;;;;;;;;;109767;1249;61248;-75
2023/02/12 06:41:29;;;;;;;;;;;;;;;;;;109620;1249;58207;-73
2023/02/12 06:43:55;;;;;;;49.50;35.70;;;;;;;;;;109711;1251;58884;-75
2023/02/12 06:46:22;;;;;;;61.80;40.90;;;;;;;;;;109729;1250;61242;-76
2023/02/12 06:48:51;;;;;;;64.60;42.00;;;;;;;;;;109824;1249;58260;-76
2023/02/12 06:51:22;;;;;;;68.90;45.80;;;;;;;;;;109168;1251;1002743;-76
2023/02/12 06:53:49;;;;;;;66.70;43.00;;;;;;;;;;109741;1250;58173;-74
2023/02/12 06:56:17;;;;;;;63.40;42.90;;;;;;;;;;109329;1251;58248;-74
2023/02/12 06:58:45;;;;;;;58.40;38.40;;;;;;;;;;109548;1251;61262;-74
2023/02/12 07:01:16;;;;;;;50.80;37.00;;;;;;;;;;109640;1251;58708;-75
2023/02/12 07:03:47;;;;;;;47.20;33.70;;;;;;;;;;109574;1251;59854;-73
2023/02/12 07:06:14;;;;;;;46.10;33.40;;;;;;;;;;109617;1251;58287;-74
2023/02/12 07:08:40;;;;;;;45.80;31.60;;;;;;;;;;109562;1251;58198;-75
2023/02/12 07:11:07;;;;;;;39.70;30.80;;;;;;;;;;109591;1250;62561;-74
2023/02/12 07:13:33;;;;;;;39.90;29.70;;;;;;;;;;109593;1251;58086;-74
2023/02/12 07:16:04;;;;;;;34.80;26.60;;;;;;;;;;109600;1251;59874;-74
2023/02/12 07:18:31;;;;;;;38.60;26.60;;;;;;;;;;109270;1251;58198;-73
2023/02/12 07:20:58;;;;;;;32.30;24.40;;;;;;;;;;109627;1251;58243;-74
2023/02/12 07:23:24;;;;;;;32.30;23.50;;;;;;;;;;109743;1251;62193;-75
2023/02/12 07:25:55;;;;;;;32.20;24.50;;;;;;;;;;109464;1254;58693;-74
2023/02/12 07:28:22;;;;;;;26.30;21.70;;;;;;;;;;109711;1251;59859;-74
2023/02/12 07:30:48;;;;;;;28.60;20.00;;;;;;;;;;109685;1250;58217;-74
2023/02/12 07:33:15;;;;;;;27.50;16.20;;;;;;;;;;109765;1250;58207;-75
2023/02/12 07:35:42;;;;;;;28.80;18.00;;;;;;;;;;109698;1251;61657;-74
2023/02/12 07:38:08;;;;;;;24.50;16.20;;;;;;;;;;109695;1251;58113;-73
2023/02/12 07:40:35;;;;;;;24.00;15.90;;;;;;;;;;109732;1250;61104;-73
2023/02/12 07:43:01;;;;;;;21.10;14.40;;;;;;;;;;109714;1250;58344;-75
2023/02/12 07:45:28;;;;;;;22.00;12.40;;;;;;;;;;109712;1250;58203;-74
2023/02/12 07:47:54;;;;;;;23.20;12.90;;;;;;;;;;109722;1251;62287;-74
2023/02/12 07:50:22;;;;;;;16.40;11.40;;;;;;;;;;109727;1250;58273;-75
2023/02/12 07:52:50;;;;;;;18.40;11.60;;;;;;;;;;108941;1250;1002941;-74
2023/02/12 07:55:16;;;;;;;18.10;11.50;;;;;;;;;;109668;1250;58756;-74
2023/02/12 07:57:43;;;;;;;20.10;10.70;;;;;;;;;;109716;1251;58058;-74
2023/02/12 08:00:10;;;;;;;18.90;11.70;;;;;;;;;;109709;1249;62401;-74
2023/02/12 08:02:36;;;;;;;18.70;11.60;;;;;;;;;;109766;1251;58236;-74
2023/02/12 08:05:03;;;;;;;21.30;11.50;;;;;;;;;;109404;1250;166284;-74
2023/02/12 08:07:54;;;;;;;18.60;11.10;;;;;;;;;;109704;1249;58169;-75
2023/02/12 08:10:22;;;;;;;15.90;11.30;;;;;;;;;;109714;1249;58193;-73
2023/02/12 08:12:49;;;;;;;17.10;11.70;;;;;;;;;;109734;1250;62267;-74
2023/02/12 08:15:15;;;;;;;20.10;14.10;;;;;;;;;;109686;1249;58243;-74
2023/02/12 08:17:42;;;;;;;18.80;12.70;;;;;;;;;;109761;1250;59696;-74
2023/02/12 08:20:09;;;;;;;20.50;12.60;;;;;;;;;;109679;1251;58251;-73
2023/02/12 08:22:35;;;;;;;19.70;12.90;;;;;;;;;;109705;1249;58316;-74
2023/02/12 08:25:02;;;;;;;20.20;13.70;;;;;;;;;;109730;1250;61238;-75
2023/02/12 08:27:28;;;;;;;16.60;11.90;;;;;;;;;;109719;1250;58075;-74
2023/02/12 08:29:55;;;;;;;21.80;12.60;;;;;;;;;;109716;1250;61042;-74
2023/02/12 08:32:21;;;;;;;14.50;10.80;;;;;;;;;;109681;1250;58243;-74
2023/02/12 08:34:48;;;;;;;15.70;10.60;;;;;;;;;;109744;1249;58354;-74
2023/02/12 08:37:14;;;;;;;15.20;10.50;;;;;;;;;;109708;1250;62340;-74
2023/02/12 08:39:41;;;;;;;13.80;10.30;;;;;;;;;;109717;1249;58170;-74
2023/02/12 08:42:08;;;;;;;15.90;10.00;;;;;;;;;;109726;1250;59745;-75
2023/02/12 08:44:35;;;;;;;12.80;8.90;;;;;;;;;;109706;1250;58668;-75
2023/02/12 08:47:02;;;;;;;13.50;9.90;;;;;;;;;;109700;1250;58063;-74
2023/02/12 08:49:29;;;;;;;13.00;8.70;;;;;;;;;;109692;1250;61242;-74
2023/02/12 08:51:57;;;;;;;15.00;8.80;;;;;;;;;;109687;1251;58308;-74
2023/02/12 08:54:28;;;;;;;13.90;8.90;;;;;;;;;;109562;1250;60782;-76
2023/02/12 08:56:56;;;;;;;14.60;9.10;;;;;;;;;;109719;1250;58458;-74
2023/02/12 08:59:23;;;;;;;12.60;9.30;;;;;;;;;;109719;1250;58238;-75
2023/02/12 09:01:50;;;;;;;12.40;7.80;;;;;;;;;;109728;1250;61106;-75
2023/02/12 09:04:20;;;;;;;14.80;8.20;;;;;;;;;;109743;1251;58134;-74
2023/02/12 09:06:47;;;;;;;11.20;7.20;;;;;;;;;;109738;1249;59871;-75
2023/02/12 09:09:14;;;;;;;13.70;8.80;;;;;;;;;;109740;1249;58225;-74
2023/02/12 09:11:41;;;;;;;10.70;7.80;;;;;;;;;;109768;1249;58241;-74
2023/02/12 09:14:11;;;;;;;12.50;7.80;;;;;;;;;;109714;1250;61182;-74
2023/02/12 09:16:39;;;;;;;11.10;8.40;;;;;;;;;;109693;1250;58289;-75
2023/02/12 09:19:06;;;;;;;12.20;8.00;;;;;;;;;;109664;1250;59549;-74
2023/02/12 09:21:32;;;;;;;10.00;5.90;;;;;;;;;;109690;1250;58210;-74
2023/02/12 09:24:00;;;;;;;12.80;7.40;;;;;;;;;;109726;1250;58047;-74
2023/02/12 09:26:26;;;;;;;10.50;7.30;;;;;;;;;;109729;1250;62435;-75
2023/02/12 09:28:53;;;;;;;7.60;5.90;;;;;;;;;;109720;1249;58556;-75
2023/02/12 09:31:27;;;;;;;8.40;6.30;;;;;;;;;;109721;1250;59882;-74
2023/02/12 09:33:57;;;;;;;10.30;6.70;;;;;;;;;;109701;1250;58201;-74
2023/02/12 09:36:24;;;;;;;8.80;6.40;;;;;;;;;;109714;1250;58181;-74
2023/02/12 09:38:52;;;;;;;10.00;6.40;;;;;;;;;;109693;1250;61330;-75
2023/02/12 09:41:37;;;;;;;9.10;6.50;;;;;;;;;;109739;1249;58388;-74
2023/02/12 09:44:14;;;;;;;10.10;7.10;;;;;;;;;;109734;1250;59985;-75
2023/02/12 09:46:41;;;;;;;9.40;6.60;;;;;;;;;;109719;1251;58212;-75
2023/02/12 09:49:09;;;;;;;13.10;8.90;;;;;;;;;;109742;1250;58170;-75
2023/02/12 09:51:40;;;;;;;12.60;7.40;;;;;;;;;;109724;1250;62393;-75
2023/02/12 09:54:15;;;;;;;9.20;7.30;;;;;;;;;;109562;1251;58166;-75
2023/02/12 09:56:45;;;;;;;13.00;7.80;;;;;;;;;;109555;1250;61029;-74
2023/02/12 09:59:15;;;;;;;12.50;7.40;;;;;;;;;;109694;1250;58142;-75
2023/02/12 10:01:42;;;;;;;10.00;7.80;;;;;;;;;;109696;1250;58150;-74
2023/02/12 10:04:08;;;;;;;14.10;8.10;;;;;;;;;;109694;1250;61198;-75
2023/02/12 10:06:36;;;;;;;12.80;8.50;;;;;;;;;;109728;1250;58156;-75
2023/02/12 10:09:13;;;;;;;13.40;8.40;;;;;;;;;;109722;1249;60083;-75
2023/02/12 10:11:46;;;;;;;10.10;7.70;;;;;;;;;;109701;1249;58551;-75
2023/02/12 10:14:18;;;;;;;11.30;8.00;;;;;;;;;;109676;1250;58183;-74
2023/02/12 10:16:51;;;;;;;11.10;8.60;;;;;;;;;;109691;1250;61258;-75
2023/02/12 10:19:20;;;;;;;13.50;9.00;;;;;;;;;;109700;1250;58419;-75
2023/02/12 10:21:57;;;;;;;12.00;8.00;;;;;;;;;;109389;1250;60022;-75
2023/02/12 10:24:34;;;;;;;10.90;7.60;;;;;;;;;;109438;1249;58413;-74
2023/02/12 10:27:04;;;;;;;11.90;8.00;;;;;;;;;;109726;1249;58374;-74
2023/02/12 10:29:30;;;;;;;;;;;;;;;;;;109722;1250;62397;-74
2023/02/12 10:32:10;;;;;;;10.20;8.00;;;;;;;;;;109708;1250;58217;-73
2023/02/12 10:34:37;;;;;;;9.30;6.30;;;;;;;;;;109678;1250;61080;-75
2023/02/12 10:37:10;;;;;;;9.10;6.00;;;;;;;;;;109712;1250;58522;-75
2023/02/12 10:39:41;;;;;;;8.80;6.20;;;;;;;;;;109718;1250;58105;-75
2023/02/12 10:42:20;;;;;;;11.60;8.10;;;;;;;;;;109541;1249;61326;-74
2023/02/12 10:44:47;;;;;;;9.90;7.90;;;;;;;;;;109590;1249;58233;-74
2023/02/12 10:47:18;;;;;;;9.70;7.90;;;;;;;;;;109699;1250;60585;-75
2023/02/12 10:49:48;;;;;;;9.30;8.20;;;;;;;;;;109403;1251;58272;-75
2023/02/12 10:52:24;;;;;;;9.10;7.20;;;;;;;;;;109579;1250;58177;-75
2023/02/12 10:54:50;;;;;;;9.20;7.20;;;;;;;;;;109568;1250;61287;-74
2023/02/12 10:57:17;;;;;;;11.70;7.60;;;;;;;;;;109642;1250;58168;-74
2023/02/12 10:59:44;;;;;;;10.30;8.20;;;;;;;;;;109586;1250;59933;-75
2023/02/12 11:02:21;;;;;;;11.10;7.50;;;;;;;;;;109581;1250;58205;-75
2023/02/12 11:04:49;;;;;;;8.60;7.10;;;;;;;;;;109597;1250;58077;-75
2023/02/12 11:07:16;;;;;;;10.30;6.20;;;;;;;;;;109575;1250;62211;-75
2023/02/12 11:09:47;;;;;;;10.00;7.10;;;;;;;;;;109655;1250;58184;-75
2023/02/12 11:12:27;;;;;;;10.90;7.30;;;;;;;;;;109556;1250;59917;-74
2023/02/12 11:14:58;;;;;;;8.70;6.70;;;;;;;;;;109556;1250;58241;-75
2023/02/12 11:17:25;;;;;;;9.50;6.30;;;;;;;;;;109589;1250;58504;-74
2023/02/12 11:20:02;;;;;;;9.30;6.80;;;;;;;;;;109599;1250;62137;-74
2023/02/12 11:22:29;;;;;;;7.60;6.30;;;;;;;;;;109601;1250;58221;-75
2023/02/12 11:24:59;;;;;;;10.10;6.20;;;;;;;;;;109575;1250;61274;-74
2023/02/12 11:27:28;;;;;;;8.60;5.70;;;;;;;;;;109599;1250;58271;-75
2023/02/12 11:30:12;;;;;;;8.70;6.10;;;;;;;;;;109590;1250;58239;-74
2023/02/12 11:32:38;;;;;;;8.20;5.80;;;;;;;;;;109605;1250;62319;-75
2023/02/12 11:35:09;;;;;;;5.80;5.00;;;;;;;;;;109625;1250;58260;-75
2023/02/12 11:37:39;;;;;;;9.20;5.60;;;;;;;;;;109628;1250;59918;-75
2023/02/12 11:40:05;;;;;;;10.00;6.40;;;;;;;;;;109577;1250;58290;-75
2023/02/12 11:42:34;;;;;;;10.60;6.50;;;;;;;;;;109417;1250;58394;-75
2023/02/12 11:45:01;;;;;;;10.10;6.30;;;;;;;;;;109607;1250;62270;-75
2023/02/12 11:47:28;;;;;;;8.00;5.40;;;;;;;;;;109595;1250;58073;-75
2023/02/12 11:49:55;;;;;;;7.30;5.70;;;;;;;;;;109397;1250;60082;-74
2023/02/12 11:52:24;;;;;;;6.50;5.20;;;;;;;;;;109564;1250;58186;-75
2023/02/12 11:54:52;;;;;;;6.10;4.60;;;;;;;;;;109579;1251;58188;-74
2023/02/12 11:57:37;;;;;;;11.00;7.70;;;;;;;;;;109546;1250;61778;-74
2023/02/12 12:00:05;;;;;;;11.60;6.70;;;;;;;;;;109585;1250;58302;-74
2023/02/12 12:02:37;;;;;;;7.60;6.00;;;;;;;;;;109629;1250;61002;-75
2023/02/12 12:05:27;;;;;;;8.40;6.50;;;;;;;;;;109602;1250;58169;-75
2023/02/12 12:07:58;;;;;;;11.20;6.20;;;;;;;;;;109569;1250;58365;-74
2023/02/12 12:10:27;;;;;;;7.50;5.90;;;;;;;;;;109586;1251;59897;-75
2023/02/12 12:12:56;;;;;;;7.70;5.70;;;;;;;;;;109596;1250;58140;-75
2023/02/12 12:21:19;;;;;;;8.60;6.90;;;;;;;;;;109586;1250;58211;-74
2023/02/12 12:23:53;;;;;;;10.80;7.00;;;;;;;;;;109422;1250;61321;-75
2023/02/12 12:26:24;;;;;;;8.60;7.50;;;;;;;;;;109609;1250;58190;-75
2023/02/12 12:28:57;;;;;;;8.10;6.70;;;;;;;;;;109331;1250;60828;-74
2023/02/12 12:31:41;;;;;;;9.80;7.40;;;;;;;;;;109593;1250;58185;-75
2023/02/12 12:34:08;;;;;;;10.20;6.50;;;;;;;;;;109584;1250;58199;-75
2023/02/12 12:36:34;;;;;;;9.50;6.60;;;;;;;;;;109581;1250;61244;-74
2023/02/12 12:39:17;;;;;;;10.20;7.10;;;;;;;;;;109623;1250;58358;-75
2023/02/12 12:41:48;;;;;;;11.50;6.80;;;;;;;;;;109571;1250;60891;-75
2023/02/12 12:44:27;;;;;;;10.10;7.50;;;;;;;;;;109563;1253;58252;-74
2023/02/12 12:47:00;;;;;;;9.50;6.90;;;;;;;;;;109554;1253;58173;-74
2023/02/12 12:49:26;;;;;;;7.80;6.10;;;;;;;;;;109629;1250;61316;-74
2023/02/12 12:52:12;;;;;;;9.00;7.20;;;;;;;;;;109715;1249;58921;-75
2023/02/12 12:54:59;;;;;;;9.80;6.60;;;;;;;;;;109669;1250;59929;-75
2023/02/12 12:57:35;;;;;;;9.60;6.10;;;;;;;;;;109066;1256;58206;-75
2023/02/12 13:00:08;;;;;;;9.90;6.60;;;;;;;;;;109089;1256;58271;-74
2023/02/12 13:02:44;;;;;;;8.30;6.30;;;;;;;;;;109102;1257;61623;-74
2023/02/12 13:05:22;;;;;;;8.50;6.90;;;;;;;;;;109098;1256;58395;-74
2023/02/12 13:07:49;;;;;;;11.10;6.30;;;;;;;;;;109074;1256;60946;-75
2023/02/12 13:10:31;;;;;;;7.40;5.40;;;;;;;;;;109098;1256;58198;-74
2023/02/12 13:13:36;;;;;;;8.60;4.80;;;;;;;;;;109084;1256;58550;-75
2023/02/12 13:16:02;;;;;;;7.10;4.80;;;;;;;;;;108759;1262;61134;-74
2023/02/12 13:18:42;;;;;;;7.80;5.30;;;;;;;;;;108777;1262;58253;-74
2023/02/12 13:21:21;;;;;;;7.00;5.20;;;;;;;;;;108764;1262;59942;-74
2023/02/12 13:23:47;;;;;;;7.40;4.80;;;;;;;;;;108762;1262;58469;-74
2023/02/12 13:26:17;;;;;;;7.20;4.20;;;;;;;;;;108769;1262;58261;-74
2023/02/12 13:28:47;;;;;;;6.60;5.00;;;;;;;;;;108791;1262;62340;-74
2023/02/12 13:31:16;;;;;;;8.40;5.90;;;;;;;;;;108781;1262;58091;-74
2023/02/12 13:33:45;;;;;;;9.10;6.00;;;;;;;;;;108786;1256;60627;-74
2023/02/12 13:36:13;;;;;;;6.90;4.70;;;;;;;;;;109079;1256;58212;-74
2023/02/12 13:38:52;;;;;;;7.00;4.30;;;;;;;;;;109032;1256;58314;-74
2023/02/12 13:41:20;;;;;;;10.40;5.40;;;;;;;;;;109099;1256;62231;-74
2023/02/12 13:43:53;;;;;;;9.10;5.20;;;;;;;;;;109093;1256;58308;-74
2023/02/12 13:46:33;;;;;;;8.90;5.20;;;;;;;;;;109296;1250;61095;-74
2023/02/12 13:49:04;;;;;;;7.70;4.80;;;;;;;;;;109458;1250;58185;-74
2023/02/12 13:51:31;;;;;;;7.80;4.60;;;;;;;;;;109724;1250;58327;-74
2023/02/12 13:53:57;;;;;;;8.10;5.20;;;;;;;;;;109702;1250;62272;-74
2023/02/12 13:56:30;;;;;;;7.90;5.80;;;;;;;;;;109454;1250;58303;-74
2023/02/12 13:58:59;;;;;;;11.40;6.30;;;;;;;;;;109676;1250;59756;-75
2023/02/12 14:01:42;;;;;;;11.10;6.50;;;;;;;;;;109586;1250;58489;-75
2023/02/12 14:04:18;;;;;;;9.10;5.70;;;;;;;;;;109669;1250;58233;-75
2023/02/12 14:06:58;;;;;;;9.90;6.20;;;;;;;;;;109761;1250;61305;-75
2023/02/12 14:09:28;;;;;;;8.30;5.50;;;;;;;;;;109685;1250;58076;-74
2023/02/12 14:11:55;;;;;;;8.90;6.10;;;;;;;;;;109695;1250;58581;-75
2023/02/12 14:14:30;;;;;;;9.70;5.90;;;;;;;;;;109692;1250;58190;-74
2023/02/12 14:16:56;;;;;;;10.10;6.80;;;;;;;;;;109709;1249;58360;-75
2023/02/12 14:19:36;;;;;;;10.70;7.10;;;;;;;;;;109708;1250;62163;-75
2023/02/12 14:22:11;;;;;;;12.70;7.30;;;;;;;;;;109483;1250;58353;-75
2023/02/12 14:24:37;;;;;;;10.20;6.50;;;;;;;;;;109684;1249;60994;-75
2023/02/12 14:27:05;;;;;;;9.40;6.50;;;;;;;;;;109625;1250;58108;-74
2023/02/12 14:29:32;;;;;;;11.40;7.30;;;;;;;;;;109694;1250;59011;-74
2023/02/12 14:31:58;;;;;;;13.00;8.10;;;;;;;;;;109708;1250;61318;-74
2023/02/12 14:34:37;;;;;;;12.40;7.90;;;;;;;;;;109684;1249;58184;-75
2023/02/12 14:37:11;;;;;;;11.00;8.00;;;;;;;;;;109666;1249;60800;-75
2023/02/12 14:39:38;;;;;;;10.50;7.20;;;;;;;;;;109665;1250;58194;-75